Latest Weather Observations for Devonport Airport

IDT60801

Issued at 12:02 pm EDT Tuesday 24 January 2017 (issued every 30 minutes, with the page automatically refreshed every 10 minutes)

About weather observations | Map of weather stations | Latest weather observations for TAS | Other Formats
Station Details ID: 091126 Name: DEVONPORT AIRPORT Lat: -41.17 Lon: 146.43 Height: 8.0 m
Data from the previous 72 hours. | See also: Recent months at Devonport Airport
Date/Time
EDT
Temp
°C
App
Temp
°C
Dew
Point
°C
Rel
Hum
%
Delta-T
°C
Wind Press
QNH
hPa
Press
MSL
hPa
Rain since
9am
mm
Dir  Spd
km/h
Gust
km/h
Spd
kts
Gust
kts
24/12:00pm 19.6 12.6 7.0 44 6.4 SW 33 44 18 24 1007.5 1007.5 -
24/11:30am 19.1 11.5 7.5 47 5.9 WSW 37 52 20 28 1006.8 1006.8 0.0
24/11:00am 18.8 10.3 8.7 52 5.3 WSW 43 61 23 33 1006.2 1006.2 0.0
24/10:30am 18.3 11.2 9.4 56 4.7 WSW 37 59 20 32 1005.6 1005.6 0.0
24/10:27am 18.1 11.7 9.5 57 4.5 WSW 33 54 18 29 1005.5 1005.5 0.0
24/10:00am 18.4 11.0 9.7 57 4.6 WSW 39 54 21 29 1005.0 1005.0 0.0
24/09:43am 17.8 11.0 7.8 52 5.1 WSW 33 52 18 28 1004.6 1004.6 0.0
24/09:30am 17.2 9.4 8.1 55 4.6 WSW 39 52 21 28 1004.3 1004.3 0.0
24/09:11am 17.5 9.2 7.8 53 4.9 WSW 41 59 22 32 1003.9 1003.9 0.0
24/09:00am 17.3 8.8 8.4 56 4.6 WSW 43 57 23 31 1003.7 1003.7 6.2
24/08:47am 16.9 9.6 8.8 59 4.2 WSW 37 56 20 30 1003.6 1003.6 6.2
24/08:30am 17.0 10.4 8.7 58 4.3 WSW 33 50 18 27 1003.0 1003.0 6.2
24/08:06am 16.6 9.4 9.3 62 3.8 W 37 65 20 35 1002.2 1002.2 6.2
24/08:00am 16.5 8.9 9.2 62 3.8 WSW 39 52 21 28 1002.0 1002.0 6.2
24/07:30am 16.1 8.2 9.5 65 3.4 W 41 52 22 28 1001.1 1001.1 6.2
24/07:04am 17.1 10.8 10.9 67 3.3 WSW 35 56 19 30 1000.3 1000.3 6.2
24/07:00am 17.2 11.3 11.2 68 3.3 WSW 33 46 18 25 1000.1 1000.1 6.2
24/06:30am 16.9 11.6 12.6 76 2.4 W 32 41 17 22 998.8 998.8 6.2
24/06:00am 17.3 12.5 12.8 75 2.5 W 30 41 16 22 998.1 998.1 6.2
24/05:30am 17.7 11.7 13.2 75 2.5 W 37 67 20 36 997.8 997.8 6.2
24/05:00am 18.6 13.2 15.1 80 2.1 W 37 61 20 33 996.9 996.9 6.2
24/04:57am 18.5 13.7 15.6 83 1.7 WNW 35 56 19 30 996.9 996.9 6.2
24/04:33am 17.7 12.7 17.1 96 0.4 WNW 39 50 21 27 996.6 996.6 6.2
24/04:30am 17.7 12.7 17.1 96 0.4 WNW 39 50 21 27 996.6 996.6 6.2
24/04:19am 17.7 12.5 17.4 98 0.2 WNW 41 54 22 29 996.7 996.7 6.2
24/04:00am 17.8 12.2 17.5 98 0.2 WNW 43 54 23 29 996.9 996.9 6.2
24/03:55am 17.9 12.4 17.6 98 0.2 WNW 43 54 23 29 996.9 996.9 6.2
24/03:49am 17.9 12.4 17.6 98 0.2 NW 43 52 23 28 996.8 996.8 6.2
24/03:35am 18.0 12.4 17.5 97 0.3 NW 43 54 23 29 996.8 996.8 6.2
24/03:30am 18.0 12.4 17.5 97 0.3 NW 43 54 23 29 997.0 997.0 6.2
24/03:15am 18.0 13.3 17.7 98 0.2 NW 39 48 21 26 996.9 996.9 6.2
24/03:00am 18.1 14.7 17.8 98 0.2 NW 32 43 17 23 997.1 997.1 6.0
24/02:30am 18.3 14.5 18.0 98 0.2 NW 35 46 19 25 997.2 997.2 6.0
24/02:27am 18.4 14.6 18.1 98 0.2 NW 35 43 19 23 997.2 997.2 5.8
24/02:19am 18.3 15.8 18.0 98 0.2 NNW 28 43 15 23 997.2 997.2 5.8
24/02:00am 18.1 17.6 17.9 99 0.1 NNW 17 24 9 13 997.6 997.6 5.8
24/01:30am 18.1 18.0 17.9 99 0.1 NNW 15 19 8 10 998.2 998.2 5.4
24/01:23am 18.1 18.0 17.9 99 0.1 NNW 15 17 8 9 998.2 998.2 5.4
24/01:02am 18.3 17.5 18.0 98 0.2 NNW 19 28 10 15 998.9 998.9 5.2
24/01:00am 18.3 17.9 18.0 98 0.2 NNW 17 26 9 14 998.8 998.8 5.2
24/12:56am 18.2 17.7 17.9 98 0.2 NNW 17 22 9 12 998.9 998.9 5.0
24/12:42am 18.4 17.9 17.9 97 0.3 NNW 17 20 9 11 999.1 999.1 4.4
24/12:30am 18.3 18.2 17.8 97 0.3 N 15 20 8 11 999.2 999.2 4.4
24/12:05am 17.9 18.1 17.6 98 0.2 NNE 13 17 7 9 1000.2 1000.2 4.0
24/12:01am 17.9 18.1 17.6 98 0.2 NNE 13 15 7 8 1000.3 1000.3 4.0
24/12:00am 17.9 18.0 17.4 97 0.3 NNE 13 15 7 8 1000.2 1000.2 4.0
 
Date/Time
EDT
Temp
°C
App
Temp
°C
Dew
Point
°C
Rel
Hum
%
Delta-T
°C
Wind Press
QNH
hPa
Press
MSL
hPa
Rain since
9am
mm
Dir  Spd
km/h
Gust
km/h
Spd
kts
Gust
kts
23/11:30pm 17.9 19.1 17.4 97 0.3 N 7 9 4 5 1001.1 1001.1 2.2
23/11:29pm 17.9 19.1 17.4 97 0.3 N 7 9 4 5 1001.1 1001.1 2.2
23/11:00pm 18.3 19.2 17.5 95 0.5 NNW 9 15 5 8 1001.9 1001.9 0.4
23/10:30pm 18.5 18.9 17.3 93 0.7 WNW 11 13 6 7 1002.5 1002.5 0.0
23/10:00pm 18.8 18.5 17.3 91 0.9 WNW 15 19 8 10 1003.0 1003.0 0.0
23/09:30pm 19.1 19.2 17.4 90 1.0 WNW 13 17 7 9 1003.0 1003.0 0.0
23/09:00pm 19.1 19.1 17.1 88 1.2 NW 13 17 7 9 1002.8 1002.8 0.0
23/08:30pm 19.3 20.6 17.1 87 1.3 NNW 6 7 3 4 1001.9 1001.9 0.0
23/08:00pm 19.7 20.8 17.1 85 1.6 NE 7 11 4 6 1001.5 1001.5 0.0
23/07:30pm 19.8 20.9 17.2 85 1.6 NNE 7 11 4 6 1001.8 1001.8 0.0
23/07:00pm 19.7 20.0 17.1 85 1.6 NNE 11 15 6 8 1002.0 1002.0 0.0
23/06:30pm 20.0 19.8 16.8 82 1.9 NNE 13 17 7 9 1002.1 1002.1 0.0
23/06:00pm 20.2 20.4 16.8 81 2.1 NNE 11 17 6 9 1002.3 1002.3 0.0
23/05:30pm 20.2 20.4 16.8 81 2.1 N 11 15 6 8 1002.6 1002.6 0.0
23/05:00pm 20.7 19.7 16.7 78 2.4 NNE 17 20 9 11 1002.8 1002.8 0.0
23/04:30pm 21.6 20.8 17.2 76 2.7 NNE 17 22 9 12 1003.3 1003.3 0.0
23/04:00pm 22.5 21.2 16.8 70 3.5 NNE 19 22 10 12 1003.5 1003.5 0.0
23/03:30pm 22.8 22.1 16.4 67 3.9 NNE 15 20 8 11 1004.1 1004.1 0.0
23/03:00pm 22.3 22.1 16.6 70 3.5 NNE 13 19 7 10 1004.5 1004.5 0.0
23/02:30pm 22.6 21.6 15.7 65 4.1 N 15 19 8 10 1005.0 1005.0 0.0
23/02:00pm 21.8 21.2 15.6 68 3.7 NNE 13 19 7 10 1005.3 1005.3 0.0
23/01:30pm 21.9 22.0 16.6 72 3.2 N 11 15 6 8 1006.0 1006.0 0.0
23/01:00pm 21.5 21.3 16.7 74 2.9 N 13 17 7 9 1006.5 1006.5 0.0
23/12:30pm 22.1 21.6 17.0 73 3.1 N 15 17 8 9 1006.8 1006.8 0.0
23/12:00pm 21.9 20.9 15.7 68 3.7 N 15 17 8 9 1006.9 1006.9 0.0
23/11:30am 21.7 21.0 15.5 68 3.7 N 13 17 7 9 1007.4 1007.4 0.0
23/11:00am 21.8 21.6 16.7 73 3.1 N 13 19 7 10 1007.6 1007.6 0.0
23/10:30am 21.4 22.1 15.5 69 3.5 NE 6 13 3 7 1008.0 1008.0 0.0
23/10:00am 21.0 20.6 14.2 65 4.0 ENE 9 11 5 6 1008.1 1008.1 0.0
23/09:30am 20.0 17.9 12.5 62 4.2 SE 15 19 8 10 1008.5 1008.5 0.0
23/09:00am 18.3 16.8 14.2 77 2.4 SSE 15 19 8 10 1009.0 1009.0 0.0
23/08:30am 16.8 14.9 14.1 84 1.5 SSE 17 20 9 11 1008.9 1008.9 0.0
23/08:00am 14.7 12.6 13.7 94 0.6 SSE 17 22 9 12 1009.0 1009.0 0.0
23/07:30am 13.8 11.5 13.0 95 0.4 S 17 22 9 12 1009.5 1009.5 0.0
23/07:00am 13.7 11.4 12.9 95 0.4 SSE 17 19 9 10 1009.7 1009.7 0.0
23/06:30am 13.3 11.7 12.7 96 0.3 SSE 13 17 7 9 1009.9 1009.9 0.0
23/06:00am 13.7 12.1 12.9 95 0.4 SSE 13 17 7 9 1009.9 1009.9 0.0
23/05:30am 13.7 12.2 13.1 96 0.3 SSE 13 17 7 9 1009.9 1009.9 0.0
23/05:06am 14.0 11.9 13.5 97 0.3 SSE 17 19 9 10 1010.1 1010.1 0.0
23/05:00am 13.9 11.7 13.4 97 0.3 SSE 17 19 9 10 1010.1 1010.1 0.0
23/04:30am 14.4 14.0 14.1 98 0.2 S 9 11 5 6 1010.4 1010.4 0.0
23/04:00am 14.3 14.2 13.8 97 0.3 SSE 7 9 4 5 1010.6 1010.6 0.0
23/03:51am 14.5 14.1 14.2 98 0.2 SSE 9 11 5 6 1010.6 1010.6 0.0
23/03:30am 13.7 13.0 13.1 96 0.3 SSE 9 11 5 6 1010.7 1010.7 0.0
23/03:00am 14.6 14.1 13.8 95 0.4 SE 9 11 5 6 1011.0 1011.0 0.0
23/02:55am 14.8 14.8 14.2 96 0.3 ESE 7 9 4 5 1011.0 1011.0 0.0
23/02:30am 15.5 15.4 14.9 96 0.3 E 9 9 5 5 1011.4 1011.4 0.0
23/02:00am 15.1 14.8 14.5 96 0.3 ENE 9 11 5 6 1011.5 1011.5 0.0
23/01:30am 14.9 14.6 14.4 97 0.3 E 9 9 5 5 1012.0 1012.0 0.0
23/01:00am 15.0 14.7 14.5 97 0.3 E 9 11 5 6 1012.2 1012.2 0.0
23/12:30am 14.8 14.4 14.2 96 0.3 ENE 9 11 5 6 1012.6 1012.6 0.0
23/12:00am 14.9 14.6 14.3 96 0.3 ENE 9 11 5 6 1012.9 1012.9 0.0
 
Date/Time
EDT
Temp
°C
App
Temp
°C
Dew
Point
°C
Rel
Hum
%
Delta-T
°C
Wind Press
QNH
hPa
Press
MSL
hPa
Rain since
9am
mm
Dir  Spd
km/h
Gust
km/h
Spd
kts
Gust
kts
22/11:30pm 15.2 15.0 14.6 96 0.3 E 9 11 5 6 1012.9 1012.9 0.0
22/11:00pm 14.8 14.4 14.2 96 0.3 ENE 9 11 5 6 1013.1 1013.1 0.0
22/10:30pm 14.7 14.2 13.9 95 0.4 ENE 9 11 5 6 1013.5 1013.5 0.0
22/10:00pm 14.9 14.5 14.1 95 0.5 E 9 11 5 6 1013.6 1013.6 0.0
22/09:30pm 15.1 15.0 13.8 92 0.7 ENE 7 9 4 5 1013.6 1013.6 0.0
22/09:00pm 16.0 16.1 14.4 90 0.9 NNE 7 9 4 5 1013.5 1013.5 0.0
22/08:30pm 16.7 16.5 14.7 88 1.2 NNE 9 11 5 6 1013.4 1013.4 0.0
22/08:00pm 17.2 17.4 14.7 85 1.4 N 7 9 4 5 1013.2 1013.2 0.0
22/07:30pm 17.4 17.2 14.7 84 1.6 NNW 9 11 5 6 1013.2 1013.2 0.0
22/07:00pm 17.9 17.0 14.8 82 1.8 NNW 13 15 7 8 1013.2 1013.2 0.0
22/06:30pm 17.7 16.7 14.6 82 1.8 NNW 13 15 7 8 1013.1 1013.1 0.0
22/06:00pm 18.3 17.1 15.0 81 1.9 NNW 15 19 8 10 1013.2 1013.2 0.0
22/05:30pm 18.3 16.6 14.8 80 2.0 NNW 17 20 9 11 1013.5 1013.5 0.0
22/05:00pm 18.2 16.5 14.7 80 2.0 NNW 17 20 9 11 1013.7 1013.7 0.0
22/04:30pm 18.3 16.1 14.4 78 2.2 NW 19 22 10 12 1013.9 1013.9 0.0
22/04:00pm 18.6 16.5 14.7 78 2.3 NNW 19 22 10 12 1014.0 1014.0 0.0
22/03:30pm 18.5 16.0 14.2 76 2.5 NW 20 26 11 14 1014.1 1014.1 0.0
22/03:00pm 18.3 15.5 14.4 78 2.2 NNW 22 26 12 14 1014.3 1014.3 0.0
22/02:30pm 18.2 15.3 13.9 76 2.5 NW 22 26 12 14 1014.6 1014.6 0.0
22/02:00pm 18.2 15.1 13.3 73 2.8 NW 22 26 12 14 1014.9 1014.9 0.0
22/01:30pm 17.8 15.2 13.3 75 2.5 NW 19 24 10 13 1015.2 1015.2 0.0
22/01:00pm 18.1 15.1 12.5 70 3.1 NW 20 24 11 13 1015.4 1015.4 0.0
22/12:30pm 17.3 14.6 11.8 70 3.0 NNW 17 20 9 11 1015.5 1015.5 0.0
22/12:00pm 17.1 14.6 10.9 67 3.3 NNW 15 19 8 10 1015.7 1015.7 0.0
22/11:30am 16.7 13.9 11.2 70 3.0 NNW 17 20 9 11 1015.9 1015.9 0.0
22/11:00am 17.2 14.4 11.2 68 3.2 NNW 17 20 9 11 1015.9 1015.9 0.0
22/10:30am 16.8 13.7 10.2 65 3.5 NNW 17 20 9 11 1015.9 1015.9 0.0
22/10:00am 17.3 14.8 9.7 61 4.0 N 13 17 7 9 1016.0 1016.0 0.0
22/09:30am 17.8 17.0 9.7 59 4.3 NNW 4 7 2 4 1016.0 1016.0 0.0
22/09:00am 16.6 15.1 9.1 61 3.9 S 7 9 4 5 1016.3 1016.3 0.0
22/08:30am 15.2 13.0 9.3 68 3.0 S 11 13 6 7 1016.3 1016.3 0.0
22/08:00am 13.9 11.7 9.5 75 2.2 SSE 11 13 6 7 1016.2 1016.2 0.0
22/07:30am 12.3 10.5 9.3 82 1.5 SSW 9 11 5 6 1015.9 1015.9 0.0
22/07:00am 11.4 9.5 9.0 85 1.2 S 9 13 5 7 1015.7 1015.7 0.0
22/06:30am 10.3 7.8 8.4 88 0.9 S 11 15 6 8 1015.4 1015.4 0.0
22/06:00am 10.2 7.4 8.5 89 0.8 SSE 13 17 7 9 1015.0 1015.0 0.0
22/05:30am 10.1 7.3 8.5 90 0.8 SSE 13 15 7 8 1015.0 1015.0 0.0
22/05:00am 10.1 7.3 8.5 90 0.8 SSE 13 13 7 7 1014.7 1014.7 0.0
22/04:30am 9.7 7.6 8.3 91 0.7 SSE 9 11 5 6 1014.5 1014.5 0.0
22/04:00am 9.7 8.0 8.3 91 0.7 S 7 11 4 6 1014.2 1014.2 0.0
22/03:30am 9.6 7.8 8.0 90 0.8 SSE 7 9 4 5 1014.0 1014.0 0.0
22/03:00am 10.3 8.5 7.9 85 1.2 SSE 7 9 4 5 1014.1 1014.1 0.0
22/02:30am 10.8 9.0 8.0 83 1.4 W 7 11 4 6 1014.2 1014.2 0.0
22/02:00am 12.5 10.9 8.8 78 1.8 SSE 7 9 4 5 1014.1 1014.1 0.0
22/01:30am 11.2 9.7 9.1 87 1.0 SE 7 9 4 5 1014.2 1014.2 0.0
22/01:00am 11.5 9.8 8.5 82 1.5 SSE 7 9 4 5 1014.6 1014.6 0.0
22/12:30am 12.5 10.1 8.8 78 1.8 SSE 11 13 6 7 1014.5 1014.5 0.0
22/12:00am 15.1 12.0 8.8 66 3.2 SW 15 20 8 11 1014.4 1014.4 0.0
 
Date/Time
EDT
Temp
°C
App
Temp
°C
Dew
Point
°C
Rel
Hum
%
Delta-T
°C
Wind Press
QNH
hPa
Press
MSL
hPa
Rain since
9am
mm
Dir  Spd
km/h
Gust
km/h
Spd
kts
Gust
kts
21/11:30pm 15.0 12.3 8.9 67 3.1 SW 13 20 7 11 1014.5 1014.5 0.0
21/11:00pm 14.8 12.2 9.2 69 2.9 SW 13 19 7 10 1014.7 1014.7 0.0
21/10:30pm 14.3 11.7 9.5 73 2.5 SW 13 15 7 8 1014.8 1014.8 0.0
21/10:00pm 15.1 12.3 9.9 71 2.7 W 15 19 8 10 1014.7 1014.7 0.0
21/09:30pm 16.2 14.4 9.4 64 3.5 W 9 13 5 7 1014.4 1014.4 0.0
21/09:00pm 16.7 14.7 10.3 66 3.4 WSW 11 15 6 8 1014.0 1014.0 0.0
21/08:30pm 18.4 14.5 9.5 56 4.7 WSW 20 24 11 13 1013.7 1013.7 0.0
21/08:00pm 19.5 15.6 9.4 52 5.3 WSW 20 28 11 15 1013.0 1013.0 0.0
21/07:30pm 20.5 15.4 9.1 48 6.0 WSW 26 33 14 18 1012.6 1012.6 0.0
21/07:00pm 20.9 17.2 10.1 50 5.8 WSW 20 30 11 16 1012.4 1012.4 0.0
21/06:30pm 20.7 18.3 11.3 55 5.2 SW 15 19 8 10 1012.2 1012.2 0.0
21/06:00pm 19.8 17.3 14.2 70 3.2 NW 20 28 11 15 1012.0 1012.0 0.0
21/05:30pm 18.7 15.0 13.8 73 2.8 NW 26 33 14 18 1012.0 1012.0 0.0
21/05:00pm 17.8 12.7 13.7 77 2.3 NW 33 43 18 23 1011.9 1011.9 0.0
21/04:30pm 18.6 13.8 14.1 75 2.6 NW 32 39 17 21 1012.1 1012.1 0.0
21/04:00pm 19.1 14.9 14.6 75 2.6 NW 30 37 16 20 1012.3 1012.3 0.0
21/03:30pm 19.2 14.1 14.7 75 2.6 NW 35 44 19 24 1012.1 1012.1 0.0
21/03:00pm 19.4 15.5 14.4 73 2.9 NW 28 35 15 19 1012.2 1012.2 0.0
21/02:30pm 18.8 14.2 13.4 71 3.1 NW 30 37 16 20 1012.3 1012.3 0.0
21/02:00pm 18.6 14.3 13.2 71 3.1 WNW 28 33 15 18 1012.5 1012.5 0.0
21/01:30pm 18.3 13.4 13.8 75 2.6 WNW 32 43 17 23 1012.5 1012.5 0.0
21/01:00pm 17.9 12.8 13.2 74 2.6 NW 32 39 17 21 1012.6 1012.6 0.0
21/12:30pm 17.4 12.7 11.9 70 3.0 NW 28 35 15 19 1012.3 1012.3 0.0

Other Formats:

Comma delimited format used in spreadsheet applications
http://www.bom.gov.au/fwo/IDT60801/IDT60801.95960.axf

JavaScript Object Notation format (JSON) in row-major order
http://www.bom.gov.au/fwo/IDT60801/IDT60801.95960.json